sensor_id;sensor_type;location;lat;lon;timestamp;temperature;humidity
20400;DHT22;10359;53.596;22.520;2022-10-03T00:02:25;9.70;99.90
20400;DHT22;10359;53.596;22.520;2022-10-03T00:05:11;9.80;99.90
20400;DHT22;10359;53.596;22.520;2022-10-03T00:08:03;9.80;99.90
20400;DHT22;10359;53.596;22.520;2022-10-03T00:10:45;9.80;99.90
20400;DHT22;10359;53.596;22.520;2022-10-03T00:13:29;9.90;99.90
20400;DHT22;10359;53.596;22.520;2022-10-03T00:16:06;9.90;99.90
20400;DHT22;10359;53.596;22.520;2022-10-03T00:18:50;10.00;99.90
20400;DHT22;10359;53.596;22.520;2022-10-03T00:21:37;10.10;99.90
20400;DHT22;10359;53.596;22.520;2022-10-03T00:24:23;10.10;99.90
20400;DHT22;10359;53.596;22.520;2022-10-03T00:26:59;10.20;99.90
20400;DHT22;10359;53.596;22.520;2022-10-03T00:29:39;10.20;99.90
20400;DHT22;10359;53.596;22.520;2022-10-03T00:32:28;10.20;99.90
20400;DHT22;10359;53.596;22.520;2022-10-03T00:35:33;10.30;99.90
20400;DHT22;10359;53.596;22.520;2022-10-03T00:38:26;10.30;99.90
20400;DHT22;10359;53.596;22.520;2022-10-03T00:41:18;10.30;99.90
20400;DHT22;10359;53.596;22.520;2022-10-03T00:44:22;10.30;99.90
20400;DHT22;10359;53.596;22.520;2022-10-03T00:50:19;10.40;99.90
20400;DHT22;10359;53.596;22.520;2022-10-03T00:53:06;10.40;99.90
20400;DHT22;10359;53.596;22.520;2022-10-03T00:55:57;10.40;99.90
20400;DHT22;10359;53.596;22.520;2022-10-03T00:58:51;10.50;99.90
20400;DHT22;10359;53.596;22.520;2022-10-03T01:01:43;10.50;99.90
20400;DHT22;10359;53.596;22.520;2022-10-03T01:07:27;10.60;99.90
20400;DHT22;10359;53.596;22.520;2022-10-03T01:10:12;10.50;99.90
20400;DHT22;10359;53.596;22.520;2022-10-03T01:12:59;10.60;99.90
20400;DHT22;10359;53.596;22.520;2022-10-03T01:15:40;10.60;99.90
20400;DHT22;10359;53.596;22.520;2022-10-03T01:18:21;10.70;99.90
20400;DHT22;10359;53.596;22.520;2022-10-03T01:21:02;10.70;99.90
20400;DHT22;10359;53.596;22.520;2022-10-03T01:26:52;10.70;99.90
20400;DHT22;10359;53.596;22.520;2022-10-03T01:29:29;10.80;99.90
20400;DHT22;10359;53.596;22.520;2022-10-03T01:32:27;10.70;99.90
20400;DHT22;10359;53.596;22.520;2022-10-03T01:35:06;10.80;99.90
20400;DHT22;10359;53.596;22.520;2022-10-03T01:37:46;10.80;99.90
20400;DHT22;10359;53.596;22.520;2022-10-03T01:40:22;10.80;99.90
20400;DHT22;10359;53.596;22.520;2022-10-03T01:43:12;10.80;99.90
20400;DHT22;10359;53.596;22.520;2022-10-03T01:45:54;10.80;99.90
20400;DHT22;10359;53.596;22.520;2022-10-03T01:48:33;10.80;99.90
20400;DHT22;10359;53.596;22.520;2022-10-03T01:51:08;10.80;99.90
20400;DHT22;10359;53.596;22.520;2022-10-03T01:53:46;10.80;99.90
20400;DHT22;10359;53.596;22.520;2022-10-03T01:56:26;10.70;99.90
20400;DHT22;10359;53.596;22.520;2022-10-03T01:59:02;10.60;99.90
20400;DHT22;10359;53.596;22.520;2022-10-03T02:01:44;10.60;99.90
20400;DHT22;10359;53.596;22.520;2022-10-03T02:04:21;10.50;99.90
20400;DHT22;10359;53.596;22.520;2022-10-03T02:06:57;10.40;99.90
20400;DHT22;10359;53.596;22.520;2022-10-03T02:09:34;10.30;99.90
20400;DHT22;10359;53.596;22.520;2022-10-03T02:12:09;10.40;99.90
20400;DHT22;10359;53.596;22.520;2022-10-03T02:14:47;10.40;99.90
20400;DHT22;10359;53.596;22.520;2022-10-03T02:17:29;10.40;99.90
20400;DHT22;10359;53.596;22.520;2022-10-03T02:20:06;10.50;99.90
20400;DHT22;10359;53.596;22.520;2022-10-03T02:22:43;10.40;99.90
20400;DHT22;10359;53.596;22.520;2022-10-03T02:25:23;10.40;99.90
20400;DHT22;10359;53.596;22.520;2022-10-03T02:34:06;10.40;99.90
20400;DHT22;10359;53.596;22.520;2022-10-03T02:37:14;10.40;99.90
20400;DHT22;10359;53.596;22.520;2022-10-03T02:40:18;10.40;99.90
20400;DHT22;10359;53.596;22.520;2022-10-03T02:43:07;10.60;99.90
20400;DHT22;10359;53.596;22.520;2022-10-03T02:46:17;10.70;99.90
20400;DHT22;10359;53.596;22.520;2022-10-03T02:49:30;10.60;99.90
20400;DHT22;10359;53.596;22.520;2022-10-03T02:55:40;10.70;99.90
20400;DHT22;10359;53.596;22.520;2022-10-03T02:58:27;10.70;99.90
20400;DHT22;10359;53.596;22.520;2022-10-03T03:04:42;10.90;99.90
20400;DHT22;10359;53.596;22.520;2022-10-03T03:07:29;10.90;99.90
20400;DHT22;10359;53.596;22.520;2022-10-03T03:10:32;10.90;99.90
20400;DHT22;10359;53.596;22.520;2022-10-03T03:13:23;11.00;99.90
20400;DHT22;10359;53.596;22.520;2022-10-03T03:16:30;11.00;99.90
20400;DHT22;10359;53.596;22.520;2022-10-03T03:19:15;11.00;99.90
20400;DHT22;10359;53.596;22.520;2022-10-03T03:21:55;11.00;99.90
20400;DHT22;10359;53.596;22.520;2022-10-03T03:24:52;11.00;99.90
20400;DHT22;10359;53.596;22.520;2022-10-03T03:27:45;11.10;99.90
20400;DHT22;10359;53.596;22.520;2022-10-03T03:30:19;11.00;99.90
20400;DHT22;10359;53.596;22.520;2022-10-03T03:32:58;11.00;99.90
20400;DHT22;10359;53.596;22.520;2022-10-03T03:35:39;11.00;99.90
20400;DHT22;10359;53.596;22.520;2022-10-03T03:38:26;11.10;99.90
20400;DHT22;10359;53.596;22.520;2022-10-03T03:41:20;11.10;99.90
20400;DHT22;10359;53.596;22.520;2022-10-03T03:44:06;11.10;99.90
20400;DHT22;10359;53.596;22.520;2022-10-03T03:46:44;11.00;99.90
20400;DHT22;10359;53.596;22.520;2022-10-03T03:49:30;11.00;99.90
20400;DHT22;10359;53.596;22.520;2022-10-03T03:52:12;11.00;99.90
20400;DHT22;10359;53.596;22.520;2022-10-03T03:55:15;11.00;99.90
20400;DHT22;10359;53.596;22.520;2022-10-03T03:58:04;11.00;99.90
20400;DHT22;10359;53.596;22.520;2022-10-03T04:00:53;11.00;99.90
20400;DHT22;10359;53.596;22.520;2022-10-03T04:03:39;11.10;99.90
20400;DHT22;10359;53.596;22.520;2022-10-03T04:06:25;11.20;99.90
20400;DHT22;10359;53.596;22.520;2022-10-03T04:09:19;11.20;99.90
20400;DHT22;10359;53.596;22.520;2022-10-03T04:12:00;11.20;99.90
20400;DHT22;10359;53.596;22.520;2022-10-03T04:14:54;11.20;99.90
20400;DHT22;10359;53.596;22.520;2022-10-03T04:17:45;11.30;99.90
20400;DHT22;10359;53.596;22.520;2022-10-03T04:23:49;11.30;99.90
20400;DHT22;10359;53.596;22.520;2022-10-03T04:26:33;11.30;99.90
20400;DHT22;10359;53.596;22.520;2022-10-03T04:29:27;11.30;99.90
20400;DHT22;10359;53.596;22.520;2022-10-03T04:32:04;11.20;99.90
20400;DHT22;10359;53.596;22.520;2022-10-03T04:34:49;11.20;99.90
20400;DHT22;10359;53.596;22.520;2022-10-03T04:37:30;11.20;99.90
20400;DHT22;10359;53.596;22.520;2022-10-03T04:40:16;11.20;99.90
20400;DHT22;10359;53.596;22.520;2022-10-03T04:42:57;11.20;99.90
20400;DHT22;10359;53.596;22.520;2022-10-03T04:45:41;11.20;99.90
20400;DHT22;10359;53.596;22.520;2022-10-03T04:48:21;11.20;99.90
20400;DHT22;10359;53.596;22.520;2022-10-03T04:51:05;11.30;99.90
20400;DHT22;10359;53.596;22.520;2022-10-03T04:53:47;11.30;99.90
20400;DHT22;10359;53.596;22.520;2022-10-03T04:56:28;11.30;99.90
20400;DHT22;10359;53.596;22.520;2022-10-03T04:59:10;11.30;99.90
20400;DHT22;10359;53.596;22.520;2022-10-03T05:01:45;11.40;99.90
20400;DHT22;10359;53.596;22.520;2022-10-03T05:04:21;11.40;99.90
20400;DHT22;10359;53.596;22.520;2022-10-03T05:07:00;11.40;99.90
20400;DHT22;10359;53.596;22.520;2022-10-03T05:09:41;11.40;99.90
20400;DHT22;10359;53.596;22.520;2022-10-03T05:12:17;11.40;99.90
20400;DHT22;10359;53.596;22.520;2022-10-03T05:15:12;11.40;99.90
20400;DHT22;10359;53.596;22.520;2022-10-03T05:17:49;11.50;99.90
20400;DHT22;10359;53.596;22.520;2022-10-03T05:20:33;11.50;99.90
20400;DHT22;10359;53.596;22.520;2022-10-03T05:23:13;11.60;99.90
20400;DHT22;10359;53.596;22.520;2022-10-03T05:25:57;11.60;99.90
20400;DHT22;10359;53.596;22.520;2022-10-03T05:28:49;11.60;99.90
20400;DHT22;10359;53.596;22.520;2022-10-03T05:31:32;11.70;99.90
20400;DHT22;10359;53.596;22.520;2022-10-03T05:34:22;11.60;99.90
20400;DHT22;10359;53.596;22.520;2022-10-03T05:37:11;11.70;99.90
20400;DHT22;10359;53.596;22.520;2022-10-03T05:39:51;11.60;99.90
20400;DHT22;10359;53.596;22.520;2022-10-03T05:43:01;11.70;99.90
20400;DHT22;10359;53.596;22.520;2022-10-03T05:45:38;11.80;99.90
20400;DHT22;10359;53.596;22.520;2022-10-03T05:48:29;11.90;99.90
20400;DHT22;10359;53.596;22.520;2022-10-03T06:00:19;12.10;99.90
20400;DHT22;10359;53.596;22.520;2022-10-03T06:03:10;12.10;99.90
20400;DHT22;10359;53.596;22.520;2022-10-03T06:06:10;12.20;99.90
20400;DHT22;10359;53.596;22.520;2022-10-03T06:08:50;12.20;99.90
20400;DHT22;10359;53.596;22.520;2022-10-03T06:11:45;12.30;99.90
20400;DHT22;10359;53.596;22.520;2022-10-03T06:17:53;12.50;99.90
20400;DHT22;10359;53.596;22.520;2022-10-03T06:23:58;12.40;99.90
20400;DHT22;10359;53.596;22.520;2022-10-03T06:27:16;12.50;99.90
20400;DHT22;10359;53.596;22.520;2022-10-03T06:30:08;12.50;99.90
20400;DHT22;10359;53.596;22.520;2022-10-03T06:33:11;12.70;99.90
20400;DHT22;10359;53.596;22.520;2022-10-03T06:36:15;12.80;99.90
20400;DHT22;10359;53.596;22.520;2022-10-03T06:39:18;12.80;99.90
20400;DHT22;10359;53.596;22.520;2022-10-03T06:42:15;12.80;99.90
20400;DHT22;10359;53.596;22.520;2022-10-03T06:45:30;12.90;99.90
20400;DHT22;10359;53.596;22.520;2022-10-03T06:48:29;12.90;99.90
20400;DHT22;10359;53.596;22.520;2022-10-03T06:51:16;12.90;99.90
20400;DHT22;10359;53.596;22.520;2022-10-03T06:57:27;12.80;99.90
20400;DHT22;10359;53.596;22.520;2022-10-03T07:00:10;12.90;99.90
20400;DHT22;10359;53.596;22.520;2022-10-03T07:06:40;13.00;99.90
20400;DHT22;10359;53.596;22.520;2022-10-03T07:09:41;12.90;99.90
20400;DHT22;10359;53.596;22.520;2022-10-03T07:15:54;13.00;99.90
20400;DHT22;10359;53.596;22.520;2022-10-03T07:19:05;13.10;99.90
20400;DHT22;10359;53.596;22.520;2022-10-03T07:25:24;13.10;99.90
20400;DHT22;10359;53.596;22.520;2022-10-03T07:28:29;13.00;99.90
20400;DHT22;10359;53.596;22.520;2022-10-03T07:31:07;13.10;99.90
20400;DHT22;10359;53.596;22.520;2022-10-03T07:34:11;13.00;99.90
20400;DHT22;10359;53.596;22.520;2022-10-03T07:37:02;13.10;99.90
20400;DHT22;10359;53.596;22.520;2022-10-03T07:49:10;13.00;99.90
20400;DHT22;10359;53.596;22.520;2022-10-03T07:51:57;13.00;99.90
20400;DHT22;10359;53.596;22.520;2022-10-03T07:54:42;13.10;99.90
20400;DHT22;10359;53.596;22.520;2022-10-03T07:57:34;13.20;99.90
20400;DHT22;10359;53.596;22.520;2022-10-03T08:00:11;13.10;99.90
20400;DHT22;10359;53.596;22.520;2022-10-03T08:03:14;13.00;99.90
20400;DHT22;10359;53.596;22.520;2022-10-03T08:06:19;13.20;99.90
20400;DHT22;10359;53.596;22.520;2022-10-03T08:09:03;13.50;99.90
20400;DHT22;10359;53.596;22.520;2022-10-03T08:14:47;13.30;99.90
20400;DHT22;10359;53.596;22.520;2022-10-03T08:17:40;13.30;99.90
20400;DHT22;10359;53.596;22.520;2022-10-03T08:20:30;13.10;99.90
20400;DHT22;10359;53.596;22.520;2022-10-03T08:26:11;13.30;99.90
20400;DHT22;10359;53.596;22.520;2022-10-03T08:29:10;13.00;99.90
20400;DHT22;10359;53.596;22.520;2022-10-03T08:38:17;12.60;99.90
20400;DHT22;10359;53.596;22.520;2022-10-03T08:47:37;13.70;99.90
20400;DHT22;10359;53.596;22.520;2022-10-03T08:50:27;13.50;99.90
20400;DHT22;10359;53.596;22.520;2022-10-03T08:53:25;13.60;99.90
20400;DHT22;10359;53.596;22.520;2022-10-03T08:56:02;13.30;99.90
20400;DHT22;10359;53.596;22.520;2022-10-03T09:11:40;12.40;99.90
20400;DHT22;10359;53.596;22.520;2022-10-03T09:17:54;13.10;99.90
20400;DHT22;10359;53.596;22.520;2022-10-03T09:33:35;11.90;99.90
20400;DHT22;10359;53.596;22.520;2022-10-03T09:36:32;11.90;99.90
20400;DHT22;10359;53.596;22.520;2022-10-03T09:39:17;11.70;99.90
20400;DHT22;10359;53.596;22.520;2022-10-03T09:42:15;11.70;99.90
20400;DHT22;10359;53.596;22.520;2022-10-03T09:45:10;11.90;99.90
20400;DHT22;10359;53.596;22.520;2022-10-03T09:48:14;12.00;99.90
20400;DHT22;10359;53.596;22.520;2022-10-03T09:54:12;11.90;99.90
20400;DHT22;10359;53.596;22.520;2022-10-03T10:06:16;12.90;99.90
20400;DHT22;10359;53.596;22.520;2022-10-03T10:15:45;12.70;99.90
20400;DHT22;10359;53.596;22.520;2022-10-03T10:22:02;12.80;99.90
20400;DHT22;10359;53.596;22.520;2022-10-03T10:25:05;12.60;99.90
20400;DHT22;10359;53.596;22.520;2022-10-03T10:28:09;12.70;99.90
20400;DHT22;10359;53.596;22.520;2022-10-03T10:37:53;12.80;99.90
20400;DHT22;10359;53.596;22.520;2022-10-03T11:00:06;12.70;99.90
20400;DHT22;10359;53.596;22.520;2022-10-03T11:06:31;12.90;99.90
20400;DHT22;10359;53.596;22.520;2022-10-03T11:09:40;13.00;99.90
20400;DHT22;10359;53.596;22.520;2022-10-03T11:22:56;13.40;99.90
20400;DHT22;10359;53.596;22.520;2022-10-03T11:38:40;13.20;99.90
20400;DHT22;10359;53.596;22.520;2022-10-03T11:41:17;13.00;99.90
20400;DHT22;10359;53.596;22.520;2022-10-03T11:46:54;13.00;99.90
20400;DHT22;10359;53.596;22.520;2022-10-03T11:49:58;13.20;99.90
20400;DHT22;10359;53.596;22.520;2022-10-03T11:52:34;13.30;99.90
20400;DHT22;10359;53.596;22.520;2022-10-03T11:55:23;13.50;99.90
20400;DHT22;10359;53.596;22.520;2022-10-03T11:58:05;13.80;99.90
20400;DHT22;10359;53.596;22.520;2022-10-03T12:00:40;13.70;99.90
20400;DHT22;10359;53.596;22.520;2022-10-03T12:03:15;13.80;99.90
20400;DHT22;10359;53.596;22.520;2022-10-03T12:05:54;14.00;99.90
20400;DHT22;10359;53.596;22.520;2022-10-03T12:08:57;14.40;99.90
20400;DHT22;10359;53.596;22.520;2022-10-03T12:11:36;13.90;99.90
20400;DHT22;10359;53.596;22.520;2022-10-03T12:14:23;13.60;99.90
20400;DHT22;10359;53.596;22.520;2022-10-03T12:17:06;13.70;99.90
20400;DHT22;10359;53.596;22.520;2022-10-03T12:19:43;13.60;99.90
20400;DHT22;10359;53.596;22.520;2022-10-03T12:22:28;13.60;99.90
20400;DHT22;10359;53.596;22.520;2022-10-03T12:25:12;13.50;99.90
20400;DHT22;10359;53.596;22.520;2022-10-03T12:27:51;13.10;99.90
20400;DHT22;10359;53.596;22.520;2022-10-03T12:30:25;13.30;99.90
20400;DHT22;10359;53.596;22.520;2022-10-03T12:33:07;13.10;99.90
20400;DHT22;10359;53.596;22.520;2022-10-03T12:35:45;13.10;99.90
20400;DHT22;10359;53.596;22.520;2022-10-03T12:38:29;13.30;99.90
20400;DHT22;10359;53.596;22.520;2022-10-03T12:41:12;13.20;99.90
20400;DHT22;10359;53.596;22.520;2022-10-03T12:43:53;13.10;99.90
20400;DHT22;10359;53.596;22.520;2022-10-03T12:46:38;12.90;99.90
20400;DHT22;10359;53.596;22.520;2022-10-03T12:49:12;12.80;99.90
20400;DHT22;10359;53.596;22.520;2022-10-03T12:51:57;12.80;99.90
20400;DHT22;10359;53.596;22.520;2022-10-03T12:54:44;12.80;99.90
20400;DHT22;10359;53.596;22.520;2022-10-03T12:57:44;12.70;99.90
20400;DHT22;10359;53.596;22.520;2022-10-03T13:00:19;12.90;99.90
20400;DHT22;10359;53.596;22.520;2022-10-03T13:06:11;13.00;99.90
20400;DHT22;10359;53.596;22.520;2022-10-03T13:08:55;13.00;99.90
20400;DHT22;10359;53.596;22.520;2022-10-03T13:11:41;13.00;99.90
20400;DHT22;10359;53.596;22.520;2022-10-03T13:14:25;13.10;99.90
20400;DHT22;10359;53.596;22.520;2022-10-03T13:17:06;13.10;99.90
20400;DHT22;10359;53.596;22.520;2022-10-03T13:19:49;13.40;99.90
20400;DHT22;10359;53.596;22.520;2022-10-03T13:22:30;13.50;99.90
20400;DHT22;10359;53.596;22.520;2022-10-03T13:25:07;13.50;99.90
20400;DHT22;10359;53.596;22.520;2022-10-03T13:27:45;13.60;99.90
20400;DHT22;10359;53.596;22.520;2022-10-03T13:30:18;13.50;99.90
20400;DHT22;10359;53.596;22.520;2022-10-03T13:32:51;13.50;99.90
20400;DHT22;10359;53.596;22.520;2022-10-03T13:35:34;13.70;99.90
20400;DHT22;10359;53.596;22.520;2022-10-03T13:38:43;13.90;99.90
20400;DHT22;10359;53.596;22.520;2022-10-03T13:41:23;13.80;99.90
20400;DHT22;10359;53.596;22.520;2022-10-03T13:43:58;13.90;99.90
20400;DHT22;10359;53.596;22.520;2022-10-03T13:46:33;13.90;99.90
20400;DHT22;10359;53.596;22.520;2022-10-03T13:49:12;13.90;99.90
20400;DHT22;10359;53.596;22.520;2022-10-03T13:51:49;13.80;99.90
20400;DHT22;10359;53.596;22.520;2022-10-03T13:54:33;13.70;99.90
20400;DHT22;10359;53.596;22.520;2022-10-03T13:57:14;13.80;99.90
20400;DHT22;10359;53.596;22.520;2022-10-03T14:00:03;13.70;99.90
20400;DHT22;10359;53.596;22.520;2022-10-03T14:05:49;13.70;99.90
20400;DHT22;10359;53.596;22.520;2022-10-03T14:11:22;13.50;99.90
20400;DHT22;10359;53.596;22.520;2022-10-03T14:14:26;13.40;99.90
20400;DHT22;10359;53.596;22.520;2022-10-03T14:17:07;13.50;99.90
20400;DHT22;10359;53.596;22.520;2022-10-03T14:19:46;13.40;99.90
20400;DHT22;10359;53.596;22.520;2022-10-03T14:25:19;13.40;99.90
20400;DHT22;10359;53.596;22.520;2022-10-03T14:27:52;13.30;99.90
20400;DHT22;10359;53.596;22.520;2022-10-03T14:30:25;13.40;99.90
20400;DHT22;10359;53.596;22.520;2022-10-03T14:33:11;13.20;99.90
20400;DHT22;10359;53.596;22.520;2022-10-03T14:35:53;13.20;99.90
20400;DHT22;10359;53.596;22.520;2022-10-03T14:38:43;13.20;99.90
20400;DHT22;10359;53.596;22.520;2022-10-03T14:41:39;13.20;99.90
20400;DHT22;10359;53.596;22.520;2022-10-03T14:44:12;13.10;99.90
20400;DHT22;10359;53.596;22.520;2022-10-03T14:46:47;12.90;99.90
20400;DHT22;10359;53.596;22.520;2022-10-03T14:49:23;12.90;99.90
20400;DHT22;10359;53.596;22.520;2022-10-03T14:52:22;12.80;99.90
20400;DHT22;10359;53.596;22.520;2022-10-03T14:54:54;12.70;99.90
20400;DHT22;10359;53.596;22.520;2022-10-03T14:57:31;12.70;99.90
20400;DHT22;10359;53.596;22.520;2022-10-03T15:00:24;12.70;99.90
20400;DHT22;10359;53.596;22.520;2022-10-03T15:02:54;12.70;99.90
20400;DHT22;10359;53.596;22.520;2022-10-03T15:05:34;12.70;99.90
20400;DHT22;10359;53.596;22.520;2022-10-03T15:08:14;12.60;99.90
20400;DHT22;10359;53.596;22.520;2022-10-03T15:10:44;12.60;99.90
20400;DHT22;10359;53.596;22.520;2022-10-03T15:13:15;12.60;99.90
20400;DHT22;10359;53.596;22.520;2022-10-03T15:15:47;12.60;99.90
20400;DHT22;10359;53.596;22.520;2022-10-03T15:18:21;12.30;99.90
20400;DHT22;10359;53.596;22.520;2022-10-03T15:20:53;12.20;99.90
20400;DHT22;10359;53.596;22.520;2022-10-03T15:23:26;12.10;99.90
20400;DHT22;10359;53.596;22.520;2022-10-03T15:25:57;12.00;99.90
20400;DHT22;10359;53.596;22.520;2022-10-03T15:28:29;12.00;99.90
20400;DHT22;10359;53.596;22.520;2022-10-03T15:31:08;11.90;99.90
20400;DHT22;10359;53.596;22.520;2022-10-03T15:33:41;11.80;99.90
20400;DHT22;10359;53.596;22.520;2022-10-03T15:36:15;11.80;99.90
20400;DHT22;10359;53.596;22.520;2022-10-03T15:38:48;11.80;99.90
20400;DHT22;10359;53.596;22.520;2022-10-03T15:41:25;11.90;99.90
20400;DHT22;10359;53.596;22.520;2022-10-03T15:43:58;11.80;99.90
20400;DHT22;10359;53.596;22.520;2022-10-03T15:46:32;11.80;99.90
20400;DHT22;10359;53.596;22.520;2022-10-03T15:49:06;11.80;99.90
20400;DHT22;10359;53.596;22.520;2022-10-03T15:51:37;11.70;99.90
20400;DHT22;10359;53.596;22.520;2022-10-03T15:54:10;11.60;99.90
20400;DHT22;10359;53.596;22.520;2022-10-03T15:56:43;11.60;99.90
20400;DHT22;10359;53.596;22.520;2022-10-03T15:59:19;11.60;99.90
20400;DHT22;10359;53.596;22.520;2022-10-03T16:01:51;11.50;99.90
20400;DHT22;10359;53.596;22.520;2022-10-03T16:04:24;11.50;99.90
20400;DHT22;10359;53.596;22.520;2022-10-03T16:07:00;11.50;99.90
20400;DHT22;10359;53.596;22.520;2022-10-03T16:09:42;11.60;99.90
20400;DHT22;10359;53.596;22.520;2022-10-03T16:15:21;11.50;99.90
20400;DHT22;10359;53.596;22.520;2022-10-03T16:17:55;11.40;99.90
20400;DHT22;10359;53.596;22.520;2022-10-03T16:20:30;11.30;99.90
20400;DHT22;10359;53.596;22.520;2022-10-03T16:23:15;11.30;99.90
20400;DHT22;10359;53.596;22.520;2022-10-03T16:25:47;11.20;99.90
20400;DHT22;10359;53.596;22.520;2022-10-03T16:28:20;11.20;99.90
20400;DHT22;10359;53.596;22.520;2022-10-03T16:30:54;11.20;99.90
20400;DHT22;10359;53.596;22.520;2022-10-03T16:33:26;11.20;99.90
20400;DHT22;10359;53.596;22.520;2022-10-03T16:36:01;11.30;99.90
20400;DHT22;10359;53.596;22.520;2022-10-03T16:38:35;11.40;99.90
20400;DHT22;10359;53.596;22.520;2022-10-03T16:41:13;11.40;99.90
20400;DHT22;10359;53.596;22.520;2022-10-03T16:43:53;11.40;99.90
20400;DHT22;10359;53.596;22.520;2022-10-03T16:46:24;11.40;99.90
20400;DHT22;10359;53.596;22.520;2022-10-03T16:48:55;11.40;99.90
20400;DHT22;10359;53.596;22.520;2022-10-03T16:51:45;11.40;99.90
20400;DHT22;10359;53.596;22.520;2022-10-03T16:54:19;11.30;99.90
20400;DHT22;10359;53.596;22.520;2022-10-03T16:56:53;11.30;99.90
20400;DHT22;10359;53.596;22.520;2022-10-03T16:59:26;11.30;99.90
20400;DHT22;10359;53.596;22.520;2022-10-03T17:01:58;11.20;99.90
20400;DHT22;10359;53.596;22.520;2022-10-03T17:04:31;11.20;99.90
20400;DHT22;10359;53.596;22.520;2022-10-03T17:07:04;11.10;99.90
20400;DHT22;10359;53.596;22.520;2022-10-03T17:09:38;11.20;99.90
20400;DHT22;10359;53.596;22.520;2022-10-03T17:12:15;11.20;99.90
20400;DHT22;10359;53.596;22.520;2022-10-03T17:14:47;11.20;99.90
20400;DHT22;10359;53.596;22.520;2022-10-03T17:17:25;11.20;99.90
20400;DHT22;10359;53.596;22.520;2022-10-03T17:20:00;11.20;99.90
20400;DHT22;10359;53.596;22.520;2022-10-03T17:22:35;11.20;99.90
20400;DHT22;10359;53.596;22.520;2022-10-03T17:25:34;11.20;99.90
20400;DHT22;10359;53.596;22.520;2022-10-03T17:28:08;11.20;99.90
20400;DHT22;10359;53.596;22.520;2022-10-03T17:30:46;11.10;99.90
20400;DHT22;10359;53.596;22.520;2022-10-03T17:33:22;11.10;99.90
20400;DHT22;10359;53.596;22.520;2022-10-03T17:36:00;11.10;99.90
20400;DHT22;10359;53.596;22.520;2022-10-03T17:38:42;11.00;99.90
20400;DHT22;10359;53.596;22.520;2022-10-03T17:41:21;11.00;99.90
20400;DHT22;10359;53.596;22.520;2022-10-03T17:44:00;11.00;99.90
20400;DHT22;10359;53.596;22.520;2022-10-03T17:46:39;11.00;99.90
20400;DHT22;10359;53.596;22.520;2022-10-03T17:49:19;10.90;99.90
20400;DHT22;10359;53.596;22.520;2022-10-03T17:51:52;10.90;99.90
20400;DHT22;10359;53.596;22.520;2022-10-03T17:54:26;10.90;99.90
20400;DHT22;10359;53.596;22.520;2022-10-03T17:57:05;10.90;99.90
20400;DHT22;10359;53.596;22.520;2022-10-03T17:59:43;10.90;99.90
20400;DHT22;10359;53.596;22.520;2022-10-03T18:02:20;11.00;99.90
20400;DHT22;10359;53.596;22.520;2022-10-03T18:04:58;11.00;99.90
20400;DHT22;10359;53.596;22.520;2022-10-03T18:07:30;11.00;99.90
20400;DHT22;10359;53.596;22.520;2022-10-03T18:10:05;11.00;99.90
20400;DHT22;10359;53.596;22.520;2022-10-03T18:12:47;10.90;99.90
20400;DHT22;10359;53.596;22.520;2022-10-03T18:15:40;10.90;99.90
20400;DHT22;10359;53.596;22.520;2022-10-03T18:18:42;10.90;99.90
20400;DHT22;10359;53.596;22.520;2022-10-03T18:21:17;10.90;99.90
20400;DHT22;10359;53.596;22.520;2022-10-03T18:24:11;10.90;99.90
20400;DHT22;10359;53.596;22.520;2022-10-03T18:26:45;10.90;99.90
20400;DHT22;10359;53.596;22.520;2022-10-03T18:29:25;10.90;99.90
20400;DHT22;10359;53.596;22.520;2022-10-03T18:32:03;10.80;99.90
20400;DHT22;10359;53.596;22.520;2022-10-03T18:34:36;10.70;99.90
20400;DHT22;10359;53.596;22.520;2022-10-03T18:37:51;10.80;99.90
20400;DHT22;10359;53.596;22.520;2022-10-03T18:40:26;10.80;99.90
20400;DHT22;10359;53.596;22.520;2022-10-03T18:42:56;10.80;99.90
20400;DHT22;10359;53.596;22.520;2022-10-03T18:45:35;10.70;99.90
20400;DHT22;10359;53.596;22.520;2022-10-03T18:48:11;10.70;99.90
20400;DHT22;10359;53.596;22.520;2022-10-03T18:50:53;10.60;99.90
20400;DHT22;10359;53.596;22.520;2022-10-03T18:53:32;10.60;99.90
20400;DHT22;10359;53.596;22.520;2022-10-03T18:56:06;10.50;99.90
20400;DHT22;10359;53.596;22.520;2022-10-03T18:58:40;10.50;99.90
20400;DHT22;10359;53.596;22.520;2022-10-03T19:01:16;10.40;99.90
20400;DHT22;10359;53.596;22.520;2022-10-03T19:03:53;10.40;99.90
20400;DHT22;10359;53.596;22.520;2022-10-03T19:06:27;10.30;99.90
20400;DHT22;10359;53.596;22.520;2022-10-03T19:09:00;10.30;99.90
20400;DHT22;10359;53.596;22.520;2022-10-03T19:11:39;10.20;99.90
20400;DHT22;10359;53.596;22.520;2022-10-03T19:14:12;10.20;99.90
20400;DHT22;10359;53.596;22.520;2022-10-03T19:17:10;10.20;99.90
20400;DHT22;10359;53.596;22.520;2022-10-03T19:19:49;10.10;99.90
20400;DHT22;10359;53.596;22.520;2022-10-03T19:22:29;10.10;99.90
20400;DHT22;10359;53.596;22.520;2022-10-03T19:25:00;10.10;99.90
20400;DHT22;10359;53.596;22.520;2022-10-03T19:27:43;10.10;99.90
20400;DHT22;10359;53.596;22.520;2022-10-03T19:30:19;10.00;99.90
20400;DHT22;10359;53.596;22.520;2022-10-03T19:32:55;9.90;99.90
20400;DHT22;10359;53.596;22.520;2022-10-03T19:35:27;9.90;99.90
20400;DHT22;10359;53.596;22.520;2022-10-03T19:38:02;9.90;99.90
20400;DHT22;10359;53.596;22.520;2022-10-03T19:40:43;9.90;99.90
20400;DHT22;10359;53.596;22.520;2022-10-03T19:43:36;9.80;99.90
20400;DHT22;10359;53.596;22.520;2022-10-03T19:49:20;9.70;99.90
20400;DHT22;10359;53.596;22.520;2022-10-03T19:51:51;9.70;99.90
20400;DHT22;10359;53.596;22.520;2022-10-03T19:54:45;9.60;99.90
20400;DHT22;10359;53.596;22.520;2022-10-03T19:57:18;9.60;99.90
20400;DHT22;10359;53.596;22.520;2022-10-03T19:59:51;9.60;99.90
20400;DHT22;10359;53.596;22.520;2022-10-03T20:02:22;9.60;99.90
20400;DHT22;10359;53.596;22.520;2022-10-03T20:04:56;9.50;99.90
20400;DHT22;10359;53.596;22.520;2022-10-03T20:07:42;9.50;99.90
20400;DHT22;10359;53.596;22.520;2022-10-03T20:10:36;9.50;99.90
20400;DHT22;10359;53.596;22.520;2022-10-03T20:13:07;9.40;99.90
20400;DHT22;10359;53.596;22.520;2022-10-03T20:15:41;9.40;99.90
20400;DHT22;10359;53.596;22.520;2022-10-03T20:18:18;9.40;99.90
20400;DHT22;10359;53.596;22.520;2022-10-03T20:20:52;9.40;99.90
20400;DHT22;10359;53.596;22.520;2022-10-03T20:23:23;9.30;99.90
20400;DHT22;10359;53.596;22.520;2022-10-03T20:25:55;9.40;99.90
20400;DHT22;10359;53.596;22.520;2022-10-03T20:28:38;9.30;99.90